Time;durP1;ratioP1;P1;durP2;ratioP2;P2;SDS_P1;SDS_P2;PMS_P1;PMS_P2;Temp;Humidity;BMP_temperature;BMP_pressure;BME280_temperature;BME280_humidity;BME280_pressure;Samples;Min_cycle;Max_cycle;Signal;HPM_P1;HPM_P2
2022/12/03 00:01:53;;;;;;;14.60;8.73;;;5.00;90.80;;;;;;5061106;28;20035;-45
2022/12/03 00:04:19;;;;;;;13.93;10.00;;;5.00;90.80;;;;;;5060985;28;20044;-46
2022/12/03 00:06:50;;;;;;;15.57;9.25;;;5.00;90.60;;;;;;5054926;28;20028;-46
2022/12/03 00:09:16;;;;;;;14.20;9.38;;;5.00;90.20;;;;;;5060865;28;20308;-49
2022/12/03 00:11:43;;;;;;;16.75;10.00;;;4.90;90.10;;;;;;5049780;28;20362;-45
2022/12/03 00:14:10;;;;;;;20.23;10.45;;;5.00;90.20;;;;;;5041038;28;20469;-47
2022/12/03 00:16:37;;;;;;;16.55;9.05;;;5.00;90.40;;;;;;5042740;28;20441;-47
2022/12/03 00:19:06;;;;;;;18.17;9.18;;;5.00;90.40;;;;;;5059105;28;20410;-45
2022/12/03 00:21:33;;;;;;;15.10;9.95;;;5.00;90.50;;;;;;5058083;28;20475;-47
2022/12/03 00:23:59;;;;;;;16.80;10.20;;;5.00;90.70;;;;;;5061611;28;20021;-49
2022/12/03 00:26:26;;;;;;;15.35;10.05;;;5.00;90.60;;;;;;5043184;28;20442;-46
2022/12/03 00:28:53;;;;;;;12.90;8.43;;;4.90;90.20;;;;;;5061086;28;20025;-48
2022/12/03 00:31:22;;;;;;;15.27;9.32;;;5.00;90.30;;;;;;5061182;28;20110;-47
2022/12/03 00:33:50;;;;;;;14.48;9.40;;;4.90;90.30;;;;;;5040730;28;20044;-47
2022/12/03 00:36:17;;;;;;;16.52;10.52;;;4.90;90.30;;;;;;5060389;28;20054;-47
2022/12/03 00:38:44;;;;;;;16.05;9.88;;;4.90;90.30;;;;;;5054553;28;20041;-47
2022/12/03 00:41:11;;;;;;;15.15;9.57;;;4.90;90.00;;;;;;5055889;28;20029;-46
2022/12/03 00:43:38;;;;;;;17.05;10.57;;;4.90;89.50;;;;;;5037480;28;20115;-46
2022/12/03 00:46:05;;;;;;;13.73;9.65;;;4.90;89.10;;;;;;5053685;28;20828;-46
2022/12/03 00:48:32;;;;;;;16.73;11.07;;;4.90;88.80;;;;;;5048378;28;20033;-51
2022/12/03 00:50:59;;;;;;;15.27;10.77;;;4.90;88.80;;;;;;5035703;28;20082;-45
2022/12/03 00:53:26;;;;;;;15.57;10.20;;;4.90;88.70;;;;;;5035659;28;20108;-46
2022/12/03 00:55:53;;;;;;;15.13;9.57;;;4.80;88.90;;;;;;5037438;28;20072;-47
2022/12/03 00:58:20;;;;;;;18.65;10.02;;;4.80;88.90;;;;;;5043275;28;20553;-45
2022/12/03 01:00:46;;;;;;;18.08;11.32;;;4.80;88.80;;;;;;5035546;28;20061;-46
2022/12/03 01:03:13;;;;;;;17.58;10.80;;;4.70;88.70;;;;;;5041828;28;20021;-45
2022/12/03 01:05:42;;;;;;;14.25;11.27;;;4.70;88.40;;;;;;5054584;28;20115;-46
2022/12/03 01:08:09;;;;;;;18.17;11.27;;;4.70;87.90;;;;;;5054609;28;20029;-45
2022/12/03 01:10:35;;;;;;;16.02;10.85;;;4.70;87.70;;;;;;5033364;28;20037;-46
2022/12/03 01:13:02;;;;;;;18.98;12.27;;;4.70;87.20;;;;;;5035444;28;20057;-50
2022/12/03 01:15:28;;;;;;;14.77;10.00;;;4.70;87.00;;;;;;5022101;28;20033;-49
2022/12/03 01:17:57;;;;;;;15.80;10.38;;;4.70;87.00;;;;;;5037061;28;20138;-48
2022/12/03 01:20:25;;;;;;;16.60;11.70;;;4.70;87.00;;;;;;5054736;28;20033;-45
2022/12/03 01:22:52;;;;;;;18.55;12.15;;;4.70;86.80;;;;;;5037488;28;20029;-49
2022/12/03 01:25:22;;;;;;;16.38;10.80;;;4.70;86.70;;;;;;5044067;28;20060;-45
2022/12/03 01:27:48;;;;;;;;;;;4.70;86.40;;;;;;5036021;28;20059;-45
2022/12/03 01:30:17;;;;;;;18.10;11.07;;;4.70;86.30;;;;;;5033687;28;19912;-45
2022/12/03 01:32:43;;;;;;;17.83;11.82;;;4.70;86.50;;;;;;5033872;28;20516;-45
2022/12/03 01:35:10;;;;;;;16.55;11.02;;;4.60;86.30;;;;;;5043308;28;20068;-46
2022/12/03 01:37:36;;;;;;;19.58;12.00;;;4.60;86.50;;;;;;5034592;28;20026;-46
2022/12/03 01:40:04;;;;;;;17.33;11.55;;;4.60;86.50;;;;;;5043981;28;20025;-46
2022/12/03 01:42:38;;;;;;;19.45;12.70;;;4.60;86.60;;;;;;5053484;28;20021;-46
2022/12/03 01:45:10;;;;;;;15.35;11.98;;;4.60;86.60;;;;;;5034788;28;20446;-46
2022/12/03 01:47:37;;;;;;;19.90;12.57;;;4.60;86.80;;;;;;5018454;28;20037;-45
2022/12/03 01:50:26;;;;;;;23.25;13.73;;;4.60;86.90;;;;;;5034522;28;20071;-47
2022/12/03 01:52:54;;;;;;;20.33;13.00;;;4.60;86.50;;;;;;5043356;28;20029;-48
2022/12/03 01:55:22;;;;;;;18.75;11.82;;;4.60;86.50;;;;;;5044712;28;20056;-51
2022/12/03 01:57:54;;;;;;;19.00;12.13;;;4.50;86.60;;;;;;5034195;28;20034;-49
2022/12/03 02:00:25;;;;;;;16.85;12.20;;;4.50;86.60;;;;;;5035726;28;20048;-44
2022/12/03 02:02:55;;;;;;;18.13;11.93;;;4.50;86.60;;;;;;5035866;28;20040;-45
2022/12/03 02:05:28;;;;;;;19.02;12.07;;;4.50;86.70;;;;;;5053880;28;20029;-46
2022/12/03 02:07:56;;;;;;;23.60;12.75;;;4.50;86.60;;;;;;5044216;28;20029;-46
2022/12/03 02:10:31;;;;;;;18.63;11.45;;;4.40;86.70;;;;;;5067355;28;20458;-47
2022/12/03 02:13:04;;;;;;;18.02;12.63;;;4.50;86.80;;;;;;5034379;28;20052;-46
2022/12/03 02:15:31;;;;;;;20.38;11.95;;;4.40;87.00;;;;;;5016564;28;20473;-47
2022/12/03 02:17:59;;;;;;;17.48;10.98;;;4.40;87.00;;;;;;5033735;28;20033;-48
2022/12/03 02:20:26;;;;;;;24.52;13.00;;;4.40;87.10;;;;;;5024070;28;20121;-48
2022/12/03 02:23:35;;;;;;;18.25;12.27;;;4.40;87.10;;;;;;5033648;28;20021;-48
2022/12/03 02:26:03;;;;;;;18.58;12.15;;;4.40;87.00;;;;;;5033670;28;20029;-45
2022/12/03 02:28:30;;;;;;;21.10;11.85;;;4.30;86.90;;;;;;5015982;28;20033;-45
2022/12/03 02:30:57;;;;;;;19.17;12.52;;;4.30;86.70;;;;;;5037682;28;20040;-46
2022/12/03 02:33:24;;;;;;;21.15;13.25;;;4.30;86.60;;;;;;5032767;28;20521;-45
2022/12/03 02:35:53;;;;;;;20.25;13.10;;;4.30;86.30;;;;;;5036858;28;20033;-49
2022/12/03 02:38:26;;;;;;;20.70;13.32;;;4.30;86.20;;;;;;5000015;28;20029;-47
2022/12/03 02:40:56;;;;;;;20.75;13.00;;;4.30;86.10;;;;;;5037290;28;20037;-50
2022/12/03 02:43:24;;;;;;;18.48;11.95;;;4.30;85.80;;;;;;5033616;28;20431;-47
2022/12/03 02:45:54;;;;;;;18.30;12.15;;;4.20;85.90;;;;;;5033676;28;20037;-48
2022/12/03 02:48:35;;;;;;;16.92;11.48;;;4.30;85.90;;;;;;5039456;28;20117;-46
2022/12/03 02:51:07;;;;;;;18.63;11.68;;;4.20;85.80;;;;;;5020621;28;20041;-50
2022/12/03 02:53:45;;;;;;;19.70;13.15;;;4.20;85.60;;;;;;5052927;28;20044;-48
2022/12/03 02:56:15;;;;;;;19.10;11.90;;;4.20;85.40;;;;;;5033166;28;20087;-45
2022/12/03 02:58:44;;;;;;;19.13;12.52;;;4.20;85.40;;;;;;5033569;28;20029;-45
2022/12/03 03:01:11;;;;;;;;;;;4.20;85.20;;;;;;5051397;28;20430;-45
2022/12/03 03:03:40;;;;;;;20.77;12.02;;;4.20;85.10;;;;;;5053470;28;19904;-48
2022/12/03 03:06:08;;;;;;;18.13;12.77;;;4.20;85.50;;;;;;5048945;28;20036;-44
2022/12/03 03:08:35;;;;;;;20.52;12.45;;;4.20;85.70;;;;;;5044833;28;20025;-45
2022/12/03 03:11:03;;;;;;;19.63;11.82;;;4.20;85.50;;;;;;5017297;28;20040;-48
2022/12/03 03:13:34;;;;;;;20.50;11.95;;;4.20;85.60;;;;;;5053151;28;20149;-45
2022/12/03 03:16:09;;;;;;;21.13;13.00;;;4.20;85.50;;;;;;5034082;28;20036;-50
2022/12/03 03:18:38;;;;;;;23.17;12.88;;;4.20;85.20;;;;;;5033200;28;20454;-45
2022/12/03 03:21:06;;;;;;;22.05;13.00;;;4.20;85.20;;;;;;5045408;28;20730;-45
2022/12/03 03:23:39;;;;;;;20.42;13.20;;;4.20;85.50;;;;;;5044386;28;20025;-45
2022/12/03 03:26:11;;;;;;;23.38;12.00;;;4.20;85.60;;;;;;5033294;28;20018;-48
2022/12/03 03:28:41;;;;;;;18.73;12.20;;;4.20;85.80;;;;;;5033117;28;20100;-45
2022/12/03 03:31:11;;;;;;;18.55;11.18;;;4.20;85.40;;;;;;5033962;28;20339;-46
2022/12/03 03:33:40;;;;;;;18.88;11.80;;;4.20;85.50;;;;;;5035347;28;20029;-47
2022/12/03 03:36:08;;;;;;;17.10;11.32;;;4.20;85.40;;;;;;5035898;28;20047;-52
2022/12/03 03:38:35;;;;;;;17.38;11.98;;;4.20;84.80;;;;;;5051099;28;20044;-45
2022/12/03 03:41:04;;;;;;;22.08;13.05;;;4.20;84.50;;;;;;5045939;28;20335;-49
2022/12/03 03:43:33;;;;;;;15.60;10.83;;;4.20;84.80;;;;;;5035217;28;20017;-48
2022/12/03 03:46:03;;;;;;;18.85;11.07;;;4.20;85.10;;;;;;5051671;28;20021;-50
2022/12/03 03:48:32;;;;;;;17.73;11.73;;;4.10;85.30;;;;;;5036900;28;20044;-47
2022/12/03 03:51:02;;;;;;;16.00;11.20;;;4.20;85.00;;;;;;5040229;28;20025;-50
2022/12/03 03:53:32;;;;;;;17.10;10.40;;;4.10;84.60;;;;;;5052971;28;20029;-48
2022/12/03 03:55:59;;;;;;;17.17;10.68;;;4.10;84.50;;;;;;5052306;28;20536;-50
2022/12/03 03:58:26;;;;;;;18.70;10.88;;;4.10;83.70;;;;;;5049266;28;20087;-46
2022/12/03 04:00:55;;;;;;;15.80;11.02;;;4.10;84.00;;;;;;5018521;28;20037;-46
2022/12/03 04:03:20;;;;;;;22.92;11.93;;;4.20;83.80;;;;;;5051384;28;20472;-45
2022/12/03 04:05:49;;;;;;;15.95;10.80;;;4.10;83.60;;;;;;5050924;28;20091;-46
2022/12/03 04:08:16;;;;;;;16.02;10.93;;;4.10;83.50;;;;;;5052474;28;20104;-46
2022/12/03 04:13:34;;;;;;;17.73;10.95;;;4.10;82.70;;;;;;5035331;28;20094;-50
2022/12/03 04:16:01;;;;;;;15.38;8.55;;;4.10;82.60;;;;;;5043269;28;20052;-45
2022/12/03 04:18:44;;;;;;;17.38;10.07;;;4.00;82.60;;;;;;5038210;28;20594;-45
2022/12/03 04:23:56;;;;;;;14.52;8.60;;;4.00;82.90;;;;;;5045141;28;20091;-47
2022/12/03 04:29:09;;;;;;;18.00;9.07;;;4.00;82.90;;;;;;5052355;28;20036;-45
2022/12/03 04:37:08;;;;;;;16.00;9.60;;;4.00;83.20;;;;;;5046761;28;20485;-47
2022/12/03 04:39:34;;;;;;;15.68;10.05;;;4.00;82.70;;;;;;5041475;28;20099;-47
2022/12/03 04:42:01;;;;;;;17.33;9.40;;;4.00;82.30;;;;;;5036206;28;20025;-49
2022/12/03 04:44:35;;;;;;;13.80;9.25;;;4.00;82.50;;;;;;5035826;28;20025;-50
2022/12/03 04:47:19;;;;;;;16.52;10.05;;;3.90;82.60;;;;;;5047581;28;20478;-48
2022/12/03 04:49:49;;;;;;;15.70;9.30;;;3.90;82.60;;;;;;5035748;28;20025;-46
2022/12/03 04:52:18;;;;;;;16.67;9.70;;;3.90;83.10;;;;;;5047379;28;20350;-45
2022/12/03 04:54:48;;;;;;;16.67;10.27;;;3.90;83.30;;;;;;5041855;28;20056;-46
2022/12/03 04:57:14;;;;;;;;;;;3.90;83.70;;;;;;5053378;28;20096;-45
2022/12/03 04:59:41;;;;;;;14.15;8.98;;;3.90;83.60;;;;;;5051588;28;19916;-49
2022/12/03 05:02:08;;;;;;;15.98;10.02;;;3.90;83.40;;;;;;5052141;28;20033;-48
2022/12/03 05:04:34;;;;;;;16.20;9.80;;;3.90;83.40;;;;;;5042611;28;20095;-48
2022/12/03 05:07:01;;;;;;;16.17;9.27;;;3.90;83.20;;;;;;5054566;28;20434;-47
2022/12/03 05:09:28;;;;;;;17.80;10.10;;;3.90;83.20;;;;;;5044586;28;20040;-46
2022/12/03 05:11:55;;;;;;;18.00;10.20;;;3.90;83.10;;;;;;5017638;28;20113;-46
2022/12/03 05:14:22;;;;;;;16.90;11.18;;;3.90;83.10;;;;;;5036517;28;20056;-52
2022/12/03 05:16:48;;;;;;;16.80;10.20;;;3.80;83.30;;;;;;5037151;28;20114;-49
2022/12/03 05:19:17;;;;;;;16.00;9.75;;;3.80;83.00;;;;;;5054829;28;20028;-47
2022/12/03 05:21:44;;;;;;;18.65;11.18;;;3.80;83.10;;;;;;5052727;28;20033;-46
2022/12/03 05:24:11;;;;;;;16.02;10.10;;;3.80;83.40;;;;;;5054003;28;20078;-45
2022/12/03 05:26:40;;;;;;;17.90;10.75;;;3.80;83.30;;;;;;5045540;28;20061;-48
2022/12/03 05:29:06;;;;;;;16.10;9.45;;;3.80;82.70;;;;;;5035128;28;20474;-47
2022/12/03 05:31:35;;;;;;;16.15;9.65;;;3.80;83.00;;;;;;5047982;28;20040;-49
2022/12/03 05:34:04;;;;;;;17.08;9.48;;;3.80;82.50;;;;;;5033777;28;20022;-45
2022/12/03 05:36:30;;;;;;;14.70;8.90;;;3.80;82.30;;;;;;5034550;28;20033;-46
2022/12/03 05:38:57;;;;;;;19.45;10.93;;;3.70;82.50;;;;;;5051603;28;20039;-49
2022/12/03 05:44:09;;;;;;;15.65;9.73;;;3.70;82.40;;;;;;5046358;28;20056;-48
2022/12/03 05:46:36;;;;;;;17.85;10.45;;;3.70;82.70;;;;;;5034819;28;20431;-51
2022/12/03 05:49:03;;;;;;;18.27;9.70;;;3.70;82.70;;;;;;5052524;28;20029;-45
2022/12/03 05:51:29;;;;;;;12.98;8.30;;;3.60;82.60;;;;;;5046336;28;20029;-45
2022/12/03 05:53:55;;;;;;;20.55;11.70;;;3.60;83.00;;;;;;5054364;28;20033;-45
2022/12/03 05:56:22;;;;;;;16.65;9.90;;;3.60;83.10;;;;;;5052820;28;20049;-46
2022/12/03 05:58:49;;;;;;;18.42;11.35;;;3.60;83.20;;;;;;5053848;28;20434;-48
2022/12/03 06:01:16;;;;;;;18.00;10.30;;;3.50;83.10;;;;;;5040301;28;20079;-47
2022/12/03 06:03:43;;;;;;;15.65;9.40;;;3.50;83.00;;;;;;5040705;28;20374;-45
2022/12/03 06:06:08;;;;;;;17.42;10.50;;;3.50;82.90;;;;;;5052528;28;20150;-45
2022/12/03 06:08:38;;;;;;;16.95;9.98;;;3.50;82.70;;;;;;5054132;28;20440;-46
2022/12/03 06:11:04;;;;;;;17.08;10.10;;;3.50;82.50;;;;;;5054220;28;20033;-47
2022/12/03 06:13:31;;;;;;;17.90;10.43;;;3.50;82.70;;;;;;5031957;28;20063;-50
2022/12/03 06:16:00;;;;;;;20.00;10.52;;;3.50;83.20;;;;;;5034249;28;20095;-47
2022/12/03 06:18:26;;;;;;;19.00;10.93;;;3.40;83.20;;;;;;5033841;28;20041;-47
2022/12/03 06:20:53;;;;;;;17.50;10.07;;;3.40;83.30;;;;;;5050445;28;20036;-47
2022/12/03 06:23:20;;;;;;;21.17;11.35;;;3.40;83.00;;;;;;5053097;28;20029;-47
2022/12/03 06:25:47;;;;;;;17.10;10.63;;;3.40;83.20;;;;;;5051688;28;20123;-45
2022/12/03 06:28:16;;;;;;;18.95;12.27;;;3.40;82.90;;;;;;5049414;28;20128;-45
2022/12/03 06:30:43;;;;;;;18.98;11.15;;;3.30;82.70;;;;;;5051953;28;20385;-48
2022/12/03 06:33:09;;;;;;;18.73;12.00;;;3.30;82.70;;;;;;5052194;28;20320;-46
2022/12/03 06:35:34;;;;;;;18.45;11.60;;;3.30;83.00;;;;;;5051527;28;20039;-46
2022/12/03 06:38:02;;;;;;;17.30;11.00;;;3.30;82.70;;;;;;5034679;28;20070;-45
2022/12/03 06:40:29;;;;;;;17.80;11.05;;;3.30;82.60;;;;;;5052151;28;20430;-45
2022/12/03 06:42:56;;;;;;;19.98;10.65;;;3.30;83.10;;;;;;5050902;28;20075;-44
2022/12/03 06:45:21;;;;;;;21.17;13.70;;;3.30;83.30;;;;;;5052404;28;20021;-47
2022/12/03 06:47:48;;;;;;;17.92;10.65;;;3.30;83.20;;;;;;5050361;28;20071;-47
2022/12/03 06:50:15;;;;;;;17.23;11.45;;;3.20;83.50;;;;;;5031314;28;20037;-47
2022/12/03 06:52:41;;;;;;;19.25;11.75;;;3.20;83.60;;;;;;5041408;28;20128;-51
2022/12/03 06:55:08;;;;;;;20.60;12.70;;;3.20;83.50;;;;;;5052712;28;20049;-46
2022/12/03 06:57:35;;;;;;;18.48;11.10;;;3.20;83.50;;;;;;5050612;28;20753;-46
2022/12/03 07:00:04;;;;;;;18.85;11.25;;;3.20;83.60;;;;;;5052052;28;20069;-49
2022/12/03 07:02:31;;;;;;;20.58;10.98;;;3.20;83.80;;;;;;5035156;28;20017;-47
2022/12/03 07:04:58;;;;;;;17.67;11.10;;;3.20;84.00;;;;;;5035070;28;20083;-44
2022/12/03 07:07:24;;;;;;;19.48;11.07;;;3.20;84.20;;;;;;5048619;28;20025;-52
2022/12/03 07:09:51;;;;;;;19.60;10.30;;;3.20;84.20;;;;;;5051149;28;20036;-47
2022/12/03 07:12:18;;;;;;;21.55;12.15;;;3.20;84.10;;;;;;5052896;28;20025;-47
2022/12/03 07:14:47;;;;;;;18.05;9.85;;;3.20;84.10;;;;;;5049329;28;20049;-46
2022/12/03 07:17:13;;;;;;;18.38;11.82;;;3.20;84.00;;;;;;5049336;28;20036;-44
2022/12/03 07:19:39;;;;;;;21.08;11.65;;;3.20;83.80;;;;;;5035266;28;20057;-45
2022/12/03 07:22:06;;;;;;;18.77;11.25;;;3.20;83.60;;;;;;5033540;28;20086;-49
2022/12/03 07:24:34;;;;;;;16.13;10.23;;;3.20;83.70;;;;;;5051614;28;20029;-49
2022/12/03 07:27:00;;;;;;;18.02;10.25;;;3.20;83.60;;;;;;5045437;28;20056;-47
2022/12/03 07:29:28;;;;;;;17.92;10.20;;;3.20;83.70;;;;;;5052549;28;20029;-46
2022/12/03 07:31:57;;;;;;;17.35;10.30;;;3.10;83.90;;;;;;5052595;28;20031;-48
2022/12/03 07:34:24;;;;;;;15.88;10.00;;;3.10;83.50;;;;;;5038400;28;20029;-49
2022/12/03 07:36:49;;;;;;;19.23;10.48;;;3.20;84.10;;;;;;5048953;28;20485;-45
2022/12/03 07:39:16;;;;;;;18.75;11.68;;;3.20;83.30;;;;;;5050109;28;20055;-47
2022/12/03 07:41:43;;;;;;;17.05;9.85;;;3.20;83.70;;;;;;5050973;28;20104;-48
2022/12/03 07:44:11;;;;;;;19.13;10.73;;;3.20;83.50;;;;;;5049197;28;20025;-49
2022/12/03 07:46:38;;;;;;;21.73;11.85;;;3.20;83.80;;;;;;5050457;28;20024;-47
2022/12/03 07:49:05;;;;;;;18.58;10.43;;;3.20;84.00;;;;;;5047541;28;20476;-46
2022/12/03 07:51:32;;;;;;;18.33;10.95;;;3.20;84.10;;;;;;5056378;28;20037;-48
2022/12/03 07:53:57;;;;;;;19.30;11.23;;;3.20;83.80;;;;;;5048222;28;20025;-45
2022/12/03 07:56:23;;;;;;;20.67;11.07;;;3.20;83.70;;;;;;5056764;28;20060;-48
2022/12/03 07:58:50;;;;;;;17.75;10.65;;;3.20;83.70;;;;;;5056529;28;20025;-46
2022/12/03 08:01:16;;;;;;;22.75;11.38;;;3.20;83.80;;;;;;5048559;28;20034;-46
2022/12/03 08:03:44;;;;;;;15.93;11.13;;;3.20;83.90;;;;;;5036656;28;20025;-49
2022/12/03 08:06:10;;;;;;;17.98;11.90;;;3.10;83.40;;;;;;5053957;28;20354;-48
2022/12/03 08:08:38;;;;;;;18.38;11.32;;;3.00;83.40;;;;;;5051094;28;20032;-45
2022/12/03 08:11:08;;;;;;;16.90;10.77;;;3.10;83.40;;;;;;5052946;28;20025;-46
2022/12/03 08:13:34;;;;;;;16.90;10.18;;;3.10;83.90;;;;;;5049854;28;20029;-46
2022/12/03 08:16:18;;;;;;;17.40;10.52;;;3.10;83.30;;;;;;5051725;28;20029;-49
2022/12/03 08:18:47;;;;;;;16.88;10.50;;;3.20;83.40;;;;;;5054319;28;20642;-49
2022/12/03 08:21:15;;;;;;;17.63;9.60;;;3.20;83.20;;;;;;5046985;28;20112;-51
2022/12/03 08:23:42;;;;;;;19.20;10.95;;;3.10;83.20;;;;;;5043363;28;20379;-49
2022/12/03 08:26:27;;;;;;;19.15;10.90;;;3.10;83.40;;;;;;5038676;28;20014;-46
2022/12/03 08:28:57;;;;;;;19.73;11.20;;;3.20;83.40;;;;;;5053773;28;20032;-49
2022/12/03 08:31:24;;;;;;;;;;;3.20;83.30;;;;;;5046607;28;20458;-46
2022/12/03 08:34:16;;;;;;;18.35;11.13;;;3.20;83.40;;;;;;5047355;28;19913;-46
2022/12/03 08:36:44;;;;;;;19.15;11.27;;;3.20;83.30;;;;;;5036044;28;20022;-49
2022/12/03 08:39:33;;;;;;;23.83;12.30;;;3.20;83.30;;;;;;5052692;28;20354;-49
2022/12/03 08:45:20;;;;;;;23.55;12.23;;;3.20;83.20;;;;;;5044501;28;20078;-46
2022/12/03 08:47:46;;;;;;;17.67;11.30;;;3.10;82.90;;;;;;5055215;28;20044;-47
2022/12/03 08:50:32;;;;;;;18.75;10.40;;;3.10;83.00;;;;;;5055701;28;20105;-46
2022/12/03 08:53:19;;;;;;;21.20;11.77;;;3.10;83.10;;;;;;5021278;28;20128;-47
2022/12/03 08:55:52;;;;;;;23.70;12.75;;;3.10;82.70;;;;;;5054898;28;20126;-49
2022/12/03 08:58:41;;;;;;;21.85;12.43;;;3.10;82.90;;;;;;5052001;28;20061;-44
2022/12/03 09:01:32;;;;;;;22.60;13.27;;;3.10;82.70;;;;;;5020328;28;20033;-44
2022/12/03 09:04:15;;;;;;;22.75;13.52;;;3.10;83.00;;;;;;5036835;28;20324;-49
2022/12/03 09:06:45;;;;;;;23.13;13.07;;;3.10;82.80;;;;;;5054704;28;20051;-45
2022/12/03 09:09:12;;;;;;;23.75;11.55;;;3.10;82.80;;;;;;5053666;28;20040;-44
2022/12/03 09:11:39;;;;;;;22.02;13.95;;;3.00;82.50;;;;;;5042889;28;20044;-50
2022/12/03 09:14:06;;;;;;;19.90;11.23;;;3.00;82.90;;;;;;5047257;28;20448;-45
2022/12/03 09:16:36;;;;;;;21.70;12.52;;;3.00;82.90;;;;;;5050216;28;20116;-47
2022/12/03 09:19:03;;;;;;;;;;;3.10;83.10;;;;;;5044917;28;20100;-47
2022/12/03 09:21:34;;;;;;;22.60;11.90;;;3.10;83.30;;;;;;5036464;28;19916;-48
2022/12/03 09:23:59;;;;;;;24.23;13.32;;;3.10;83.20;;;;;;5051207;28;20373;-49
2022/12/03 09:26:27;;;;;;;23.33;13.32;;;3.10;82.90;;;;;;5050138;28;20083;-49
2022/12/03 09:28:54;;;;;;;19.58;12.30;;;3.10;83.00;;;;;;5054244;28;20032;-49
2022/12/03 09:31:20;;;;;;;22.48;13.50;;;3.10;83.20;;;;;;5041775;28;20068;-47
2022/12/03 09:33:47;;;;;;;22.73;14.18;;;3.10;83.10;;;;;;5039354;28;20048;-46
2022/12/03 09:36:14;;;;;;;20.98;12.98;;;3.20;83.10;;;;;;5048129;28;20509;-50
2022/12/03 09:38:43;;;;;;;21.90;12.75;;;3.10;82.80;;;;;;5040180;28;20028;-49
2022/12/03 09:41:10;;;;;;;20.17;12.07;;;3.10;82.80;;;;;;5051213;28;20117;-45
2022/12/03 09:43:36;;;;;;;21.23;13.40;;;3.20;83.30;;;;;;5053925;28;20017;-45
2022/12/03 09:46:06;;;;;;;23.23;12.27;;;3.30;83.10;;;;;;5053097;28;20029;-48
2022/12/03 09:48:34;;;;;;;23.10;13.10;;;3.20;82.30;;;;;;5043132;28;20385;-45
2022/12/03 09:51:01;;;;;;;19.02;13.45;;;3.20;82.40;;;;;;5054313;28;20041;-47
2022/12/03 09:53:30;;;;;;;23.10;13.15;;;3.20;82.60;;;;;;5035240;28;20029;-51
2022/12/03 09:55:59;;;;;;;22.30;13.82;;;3.20;82.70;;;;;;5042750;28;20099;-48
2022/12/03 09:58:28;;;;;;;19.85;12.60;;;3.20;82.90;;;;;;5047488;28;20048;-46
2022/12/03 10:00:55;;;;;;;19.10;13.20;;;3.20;83.10;;;;;;5050413;28;20037;-50
2022/12/03 10:03:28;;;;;;;23.60;13.88;;;3.20;82.70;;;;;;5046277;28;20025;-49
2022/12/03 10:05:55;;;;;;;21.23;12.60;;;3.20;83.20;;;;;;5049020;28;20040;-49
2022/12/03 10:08:22;;;;;;;24.70;13.10;;;3.30;82.80;;;;;;5052035;28;20351;-49
2022/12/03 10:10:55;;;;;;;23.48;13.73;;;3.30;82.80;;;;;;5033905;28;20061;-49
2022/12/03 10:13:28;;;;;;;19.88;13.65;;;3.40;82.70;;;;;;5053322;28;20020;-47
2022/12/03 10:15:58;;;;;;;26.63;16.55;;;3.40;82.00;;;;;;5052396;28;20037;-48
2022/12/03 10:18:28;;;;;;;25.73;15.40;;;3.30;82.00;;;;;;5045629;28;20124;-46
2022/12/03 10:20:56;;;;;;;21.63;14.23;;;3.30;82.10;;;;;;5037695;28;20029;-45
2022/12/03 10:23:29;;;;;;;28.73;17.13;;;3.20;82.10;;;;;;5038354;28;20116;-45
2022/12/03 10:25:58;;;;;;;20.15;13.05;;;3.20;81.90;;;;;;5053655;28;20021;-46
2022/12/03 10:28:34;;;;;;;26.27;15.13;;;3.30;82.60;;;;;;5048088;28;20025;-46
2022/12/03 10:31:04;;;;;;;22.88;13.13;;;3.30;82.60;;;;;;5050949;28;20079;-49
2022/12/03 10:33:34;;;;;;;21.50;12.90;;;3.20;82.20;;;;;;5053602;28;20029;-50
2022/12/03 10:36:19;;;;;;;21.63;12.98;;;3.30;82.20;;;;;;5053509;28;20037;-46
2022/12/03 10:39:26;;;;;;;26.17;13.57;;;3.20;81.90;;;;;;5037595;28;20028;-48
2022/12/03 10:42:14;;;;;;;23.23;13.30;;;3.20;82.30;;;;;;5027322;28;20056;-46
2022/12/03 10:44:41;;;;;;;24.83;13.95;;;3.30;82.70;;;;;;5033096;28;20039;-49
2022/12/03 10:47:10;;;;;;;20.25;12.85;;;3.30;82.80;;;;;;5051066;28;20138;-51
2022/12/03 10:49:41;;;;;;;24.77;12.75;;;3.40;82.50;;;;;;5051496;28;20032;-49
2022/12/03 10:52:28;;;;;;;25.75;15.02;;;3.30;82.10;;;;;;5047657;28;20116;-47
2022/12/03 10:54:54;;;;;;;22.50;14.95;;;3.40;82.40;;;;;;5045938;28;20041;-48
2022/12/03 10:57:22;;;;;;;29.80;18.05;;;3.40;82.00;;;;;;5035544;28;20327;-47
2022/12/03 10:59:49;;;;;;;36.42;21.95;;;3.30;81.80;;;;;;5053145;28;20100;-48
2022/12/03 11:02:21;;;;;;;27.60;15.98;;;3.40;82.00;;;;;;5041778;28;20025;-46
2022/12/03 11:04:49;;;;;;;20.30;12.93;;;3.30;81.90;;;;;;5042940;28;20037;-50
2022/12/03 11:07:18;;;;;;;21.92;13.15;;;3.40;81.50;;;;;;5051946;28;20033;-46
2022/12/03 11:09:48;;;;;;;23.10;12.75;;;3.50;81.90;;;;;;5051057;28;20107;-49
2022/12/03 11:12:25;;;;;;;23.65;13.90;;;3.50;81.40;;;;;;5052113;28;20434;-48
2022/12/03 11:14:53;;;;;;;22.52;14.10;;;3.40;81.30;;;;;;5043606;28;20032;-45
2022/12/03 11:17:52;;;;;;;25.35;14.48;;;3.50;81.30;;;;;;5051186;28;20063;-47
2022/12/03 11:20:30;;;;;;;25.27;15.25;;;3.50;81.20;;;;;;5039801;28;20098;-49
2022/12/03 11:22:58;;;;;;;20.35;13.40;;;3.50;81.30;;;;;;5049984;28;20037;-48
2022/12/03 11:25:26;;;;;;;25.10;14.43;;;3.50;81.50;;;;;;5049890;28;20040;-44
2022/12/03 11:28:14;;;;;;;25.65;15.93;;;3.50;81.40;;;;;;5052346;28;20082;-47
2022/12/03 11:30:55;;;;;;;22.67;14.20;;;3.50;81.40;;;;;;5034349;28;20638;-46
2022/12/03 11:33:40;;;;;;;23.15;14.75;;;3.50;81.20;;;;;;5050488;28;20033;-49
2022/12/03 11:36:24;;;;;;;22.52;14.48;;;3.50;81.70;;;;;;5033364;28;20079;-46
2022/12/03 11:38:53;;;;;;;25.95;13.90;;;3.50;81.60;;;;;;5031597;28;20390;-48
2022/12/03 11:41:59;;;;;;;21.83;13.05;;;3.50;81.10;;;;;;5040312;28;20072;-45
2022/12/03 11:44:31;;;;;;;26.92;16.30;;;3.50;81.60;;;;;;5032182;28;20029;-47
2022/12/03 11:47:06;;;;;;;21.85;13.65;;;3.60;81.60;;;;;;5032284;28;20028;-50
2022/12/03 11:49:38;;;;;;;20.17;13.50;;;3.60;81.40;;;;;;5031253;28;20346;-46
2022/12/03 11:52:28;;;;;;;22.63;14.55;;;3.60;81.50;;;;;;5046900;28;20029;-49
2022/12/03 11:55:03;;;;;;;27.67;16.10;;;3.60;81.40;;;;;;5036386;28;20029;-52
2022/12/03 11:57:34;;;;;;;27.83;16.35;;;3.70;80.80;;;;;;5052688;28;20378;-44
2022/12/03 12:00:28;;;;;;;24.50;13.43;;;3.70;80.90;;;;;;5050775;28;20053;-47
2022/12/03 12:02:56;;;;;;;20.77;13.70;;;3.70;80.80;;;;;;5045001;28;20025;-49
2022/12/03 12:05:28;;;;;;;22.23;14.00;;;3.70;80.20;;;;;;5051385;28;20029;-50
2022/12/03 12:07:58;;;;;;;23.90;14.30;;;3.70;80.80;;;;;;5042334;28;20447;-45
2022/12/03 12:10:47;;;;;;;24.40;15.15;;;3.70;80.00;;;;;;5049512;28;20044;-45
2022/12/03 12:13:24;;;;;;;;;;;3.70;80.40;;;;;;5050107;28;20025;-46
2022/12/03 12:15:51;;;;;;;20.25;12.13;;;3.70;79.70;;;;;;5048558;28;19969;-47
2022/12/03 12:18:54;;;;;;;21.02;12.80;;;3.70;79.80;;;;;;5052041;28;20024;-46
2022/12/03 12:21:42;;;;;;;23.45;14.30;;;3.60;79.60;;;;;;5043411;28;20484;-46
2022/12/03 12:24:34;;;;;;;24.27;13.82;;;3.50;80.30;;;;;;5048560;28;20378;-50
2022/12/03 12:27:06;;;;;;;22.52;13.90;;;3.50;81.80;;;;;;5035276;28;20115;-48
2022/12/03 12:29:35;;;;;;;22.10;14.18;;;3.50;81.50;;;;;;5031942;28;20029;-48
2022/12/03 12:32:15;;;;;;;22.02;12.45;;;3.50;81.60;;;;;;5050087;28;20033;-50
2022/12/03 12:34:48;;;;;;;21.80;13.40;;;3.40;81.60;;;;;;5052424;28;20044;-48
2022/12/03 12:37:32;;;;;;;24.63;15.82;;;3.40;81.40;;;;;;5054996;28;20104;-46
2022/12/03 12:40:05;;;;;;;25.65;15.07;;;3.20;81.20;;;;;;5043439;28;20621;-47
2022/12/03 12:42:36;;;;;;;25.90;14.95;;;3.30;81.60;;;;;;5053405;28;20035;-50
2022/12/03 12:45:17;;;;;;;22.40;14.32;;;3.30;82.10;;;;;;5052724;28;20037;-50
2022/12/03 12:48:14;;;;;;;20.40;13.23;;;3.30;81.80;;;;;;5051660;28;20021;-47
2022/12/03 12:50:43;;;;;;;21.02;12.27;;;3.20;81.80;;;;;;5051244;28;20037;-50
2022/12/03 12:53:30;;;;;;;23.63;13.68;;;3.20;81.70;;;;;;5053050;28;20053;-48
2022/12/03 12:56:23;;;;;;;20.60;13.63;;;3.20;81.80;;;;;;5034796;28;20041;-47
2022/12/03 12:58:50;;;;;;;24.05;15.80;;;3.20;82.00;;;;;;5034145;28;20470;-45
2022/12/03 13:01:24;;;;;;;23.05;15.02;;;3.30;82.50;;;;;;5042965;28;20048;-50
2022/12/03 13:03:52;;;;;;;23.35;13.07;;;3.40;82.50;;;;;;5034305;28;20087;-47
2022/12/03 13:06:26;;;;;;;22.20;13.18;;;3.40;82.30;;;;;;5033464;28;20163;-51
2022/12/03 13:08:59;;;;;;;21.00;13.35;;;3.20;81.90;;;;;;5024370;28;20407;-48
2022/12/03 13:11:40;;;;;;;24.95;14.93;;;3.20;82.40;;;;;;5034993;28;20087;-49
2022/12/03 13:14:24;;;;;;;24.38;14.55;;;3.30;82.10;;;;;;5054171;28;20040;-47
2022/12/03 13:16:55;;;;;;;25.35;12.70;;;3.20;81.70;;;;;;5052277;28;20037;-50
2022/12/03 13:19:23;;;;;;;22.92;13.63;;;3.20;81.80;;;;;;5052879;28;20938;-48